createdAt,value
2016-07-28T00:00:15.141Z,18.67
2016-07-28T00:01:15.128Z,18.69
2016-07-28T00:02:15.130Z,18.66
2016-07-28T00:03:15.130Z,18.63
2016-07-28T00:04:15.823Z,18.7
2016-07-28T00:05:15.149Z,18.7
2016-07-28T00:06:15.128Z,18.73
2016-07-28T00:07:15.128Z,18.76
2016-07-28T00:09:18.364Z,18.67
2016-07-28T00:10:15.502Z,18.66
2016-07-28T00:12:15.596Z,18.67
2016-07-28T00:13:15.471Z,18.65
2016-07-28T00:14:15.116Z,18.69
2016-07-28T00:15:15.120Z,18.69
2016-07-28T00:16:15.116Z,18.69
2016-07-28T00:17:16.637Z,18.75
2016-07-28T00:18:16.473Z,18.69
2016-07-28T00:19:16.210Z,18.76
2016-07-28T00:20:15.823Z,18.65
2016-07-28T00:21:15.182Z,18.69
2016-07-28T00:22:15.478Z,18.78
2016-07-28T00:23:15.416Z,18.75
2016-07-28T00:24:15.115Z,18.73
2016-07-28T00:25:15.113Z,18.84
2016-07-28T00:26:15.112Z,18.76
2016-07-28T00:27:15.113Z,18.81
2016-07-28T00:28:15.104Z,18.91
2016-07-28T00:29:15.107Z,18.94
2016-07-28T00:30:15.106Z,18.8
2016-07-28T00:32:30.169Z,18.78
2016-07-28T00:33:15.851Z,18.8
2016-07-28T00:34:15.257Z,18.84
2016-07-28T00:35:16.453Z,18.82
2016-07-28T00:36:15.100Z,18.88
2016-07-28T00:37:15.109Z,18.91
2016-07-28T00:38:15.402Z,18.95
2016-07-28T00:39:15.095Z,18.95
2016-07-28T00:40:16.353Z,18.92
2016-07-28T00:42:15.091Z,18.92
2016-07-28T00:43:15.090Z,18.95
2016-07-28T00:44:30.009Z,18.81
2016-07-28T00:45:15.095Z,19
2016-07-28T00:46:15.093Z,18.92
2016-07-28T00:47:15.096Z,18.92
2016-07-28T00:48:15.090Z,18.94
2016-07-28T00:49:15.087Z,19
2016-07-28T00:50:15.085Z,19.04
2016-07-28T00:51:15.091Z,18.99
2016-07-28T00:52:15.081Z,19.02
2016-07-28T00:53:15.090Z,19.07
2016-07-28T00:54:15.089Z,18.99
2016-07-28T00:55:15.090Z,18.92
2016-07-28T00:56:15.078Z,18.92
2016-07-28T00:57:15.081Z,18.99
2016-07-28T00:58:15.076Z,18.92
2016-07-28T00:59:15.082Z,18.94
2016-07-28T01:00:15.081Z,18.85
2016-07-28T01:01:15.092Z,18.95
2016-07-28T01:02:15.074Z,18.94
2016-07-28T01:03:15.087Z,19
2016-07-28T01:04:15.079Z,19
2016-07-28T01:05:15.075Z,18.94
2016-07-28T01:06:15.080Z,19.02
2016-07-28T01:07:15.076Z,19.04
2016-07-28T01:08:15.070Z,19.02
2016-07-28T01:09:15.077Z,19.04
2016-07-28T01:10:15.074Z,19.06
2016-07-28T01:11:15.069Z,19.02
2016-07-28T01:12:15.073Z,18.94
2016-07-28T01:13:15.072Z,18.98
2016-07-28T01:14:15.067Z,19.06
2016-07-28T01:15:15.071Z,19
2016-07-28T01:16:15.066Z,19.06
2016-07-28T01:17:15.071Z,19.04
2016-07-28T01:18:15.065Z,18.95
2016-07-28T01:19:15.065Z,19
2016-07-28T01:20:15.065Z,18.95
2016-07-28T01:21:15.061Z,19.07
2016-07-28T01:22:15.063Z,19.1
2016-07-28T01:23:15.062Z,19
2016-07-28T01:24:15.057Z,19.02
2016-07-28T01:25:15.064Z,19.1
2016-07-28T01:26:16.577Z,19.02
2016-07-28T01:28:16.579Z,18.98
2016-07-28T01:29:15.058Z,19
2016-07-28T01:30:16.445Z,18.94
2016-07-28T01:31:15.053Z,19
2016-07-28T01:32:15.061Z,18.9
2016-07-28T01:33:15.053Z,18.88
2016-07-28T01:34:15.062Z,19.02
2016-07-28T01:36:16.306Z,18.91
2016-07-28T01:37:15.049Z,18.99
2016-07-28T01:38:15.663Z,18.95
2016-07-28T01:39:15.736Z,18.94
2016-07-28T01:40:15.050Z,19
2016-07-28T01:41:15.267Z,18.91
2016-07-28T01:42:15.125Z,18.94
2016-07-28T01:43:15.048Z,18.82
2016-07-28T01:44:15.049Z,18.92
2016-07-28T01:45:15.051Z,18.91
2016-07-28T01:46:15.053Z,18.87
2016-07-28T01:47:15.056Z,19.07
2016-07-28T01:48:15.040Z,18.94
2016-07-28T01:49:15.996Z,18.91
2016-07-28T01:50:15.599Z,18.9
2016-07-28T01:51:15.044Z,18.92
2016-07-28T01:52:15.389Z,18.94
2016-07-28T01:53:15.039Z,18.94
2016-07-28T01:54:16.246Z,18.94
2016-07-28T01:55:15.034Z,18.9
2016-07-28T01:56:15.041Z,18.98
2016-07-28T01:57:15.034Z,18.91
2016-07-28T01:59:15.682Z,18.9
2016-07-28T02:01:15.035Z,18.95
2016-07-28T02:02:15.036Z,18.95
2016-07-28T02:03:15.040Z,18.9
2016-07-28T02:04:15.030Z,18.91
2016-07-28T02:05:15.336Z,19.07
2016-07-28T02:06:15.029Z,19.02
2016-07-28T02:07:15.023Z,18.98
2016-07-28T02:08:15.028Z,18.95
2016-07-28T02:09:15.021Z,18.92
2016-07-28T02:10:15.030Z,19.04
2016-07-28T02:11:15.025Z,19.04
2016-07-28T02:12:15.027Z,19.02
2016-07-28T02:13:15.023Z,19.1
2016-07-28T02:14:15.019Z,18.98
2016-07-28T02:15:15.017Z,19.02
2016-07-28T02:16:15.019Z,19.02
2016-07-28T02:17:15.027Z,19.02
2016-07-28T02:18:15.019Z,19.08
2016-07-28T02:19:15.015Z,19.1
2016-07-28T02:20:15.016Z,19.04
2016-07-28T02:21:15.710Z,19.08
2016-07-28T02:22:15.018Z,19.22
2016-07-28T02:23:15.015Z,19.06
2016-07-28T02:24:15.024Z,19.08
2016-07-28T02:25:15.023Z,19.16
2016-07-28T02:26:15.014Z,19.19
2016-07-28T02:27:15.013Z,19.21
2016-07-28T02:28:15.013Z,19.14
2016-07-28T02:29:15.013Z,19.11
2016-07-28T02:30:15.010Z,19.11
2016-07-28T02:31:15.013Z,19.16
2016-07-28T02:32:15.014Z,19.14
2016-07-28T02:33:15.008Z,19.16
2016-07-28T02:34:15.005Z,19.18
2016-07-28T02:35:15.008Z,19.04
2016-07-28T02:36:15.008Z,19.04
2016-07-28T02:37:15.004Z,19.18
2016-07-28T02:38:15.001Z,19.06
2016-07-28T02:39:15.000Z,19.02
2016-07-28T02:40:15.007Z,18.99
2016-07-28T02:41:15.002Z,18.99
2016-07-28T02:42:15.001Z,18.99
2016-07-28T02:43:14.995Z,19.04
2016-07-28T02:45:16.293Z,18.98
2016-07-28T02:46:15.476Z,19.04
2016-07-28T02:47:15.001Z,19.02
2016-07-28T02:48:14.995Z,19.02
2016-07-28T02:49:16.405Z,19.04
2016-07-28T02:50:14.998Z,19.04
2016-07-28T02:51:15.203Z,18.98
2016-07-28T02:52:14.998Z,19.04
2016-07-28T02:53:14.989Z,19
2016-07-28T02:55:17.136Z,18.95
2016-07-28T02:56:15.230Z,18.99
2016-07-28T02:57:16.383Z,18.98
2016-07-28T02:58:16.042Z,18.94
2016-07-28T02:59:14.989Z,18.9
2016-07-28T03:00:14.987Z,18.91
2016-07-28T03:01:14.987Z,18.94
2016-07-28T03:02:14.991Z,18.88
2016-07-28T03:03:14.980Z,18.98
2016-07-28T03:04:14.983Z,18.98
2016-07-28T03:05:14.989Z,18.9
2016-07-28T03:06:14.982Z,18.99
2016-07-28T03:07:14.985Z,18.94
2016-07-28T03:08:29.894Z,19.02
2016-07-28T03:09:15.826Z,18.94
2016-07-28T03:10:15.082Z,18.95
2016-07-28T03:11:15.082Z,18.9
2016-07-28T03:12:14.978Z,18.88
2016-07-28T03:13:14.979Z,18.92
2016-07-28T03:14:14.979Z,18.91
2016-07-28T03:15:14.980Z,18.92
2016-07-28T03:16:14.975Z,18.92
2016-07-28T03:17:30.289Z,19
2016-07-28T03:18:30.889Z,18.94
2016-07-28T03:19:30.490Z,19.07
2016-07-28T03:20:14.975Z,18.92
2016-07-28T03:21:15.118Z,18.92
2016-07-28T03:22:14.982Z,18.99
2016-07-28T03:23:14.965Z,18.85
2016-07-28T03:24:14.967Z,18.9
2016-07-28T03:25:14.966Z,18.9
2016-07-28T03:26:14.975Z,18.88
2016-07-28T03:27:14.960Z,18.92
2016-07-28T03:28:14.966Z,18.94
2016-07-28T03:29:14.961Z,18.98
2016-07-28T03:30:14.960Z,18.91
2016-07-28T03:31:14.964Z,18.9
2016-07-28T03:32:14.963Z,18.94
2016-07-28T03:33:14.965Z,18.94
2016-07-28T03:34:14.964Z,18.98
2016-07-28T03:35:14.967Z,18.92
2016-07-28T03:36:14.959Z,19.02
2016-07-28T03:37:14.961Z,19
2016-07-28T03:38:14.959Z,19.02
2016-07-28T03:39:14.955Z,19.06
2016-07-28T03:40:14.955Z,19.08
2016-07-28T03:41:14.951Z,19.02
2016-07-28T03:42:14.955Z,19
2016-07-28T03:43:14.973Z,19.04
2016-07-28T03:44:14.955Z,18.99
2016-07-28T03:45:14.951Z,19.06
2016-07-28T03:46:14.956Z,19.02
2016-07-28T03:47:14.949Z,19.06
2016-07-28T03:48:14.953Z,19.04
2016-07-28T03:49:14.948Z,19
2016-07-28T03:50:14.945Z,19.04
2016-07-28T03:51:14.949Z,19
2016-07-28T03:52:14.948Z,19.04
2016-07-28T03:53:14.947Z,18.99
2016-07-28T03:54:14.947Z,18.98
2016-07-28T03:55:14.941Z,18.94
2016-07-28T03:56:14.944Z,18.99
2016-07-28T03:58:14.941Z,19
2016-07-28T03:59:14.938Z,19.02
2016-07-28T04:00:14.941Z,19
2016-07-28T04:01:14.942Z,19
2016-07-28T04:02:14.939Z,19.02
2016-07-28T04:03:14.932Z,19.04
2016-07-28T04:04:14.936Z,19.14
2016-07-28T04:05:14.940Z,19.18
2016-07-28T04:06:14.935Z,19.19
2016-07-28T04:07:14.937Z,19.22
2016-07-28T04:08:14.935Z,19.31
2016-07-28T04:09:14.940Z,19.28
2016-07-28T04:10:14.935Z,19.36
2016-07-28T04:11:14.929Z,19.29
2016-07-28T04:13:14.931Z,19.39
2016-07-28T04:14:14.928Z,19.41
2016-07-28T04:15:14.932Z,19.4
2016-07-28T04:16:14.925Z,19.43
2016-07-28T04:17:14.930Z,19.54
2016-07-28T04:18:14.933Z,19.47
2016-07-28T04:19:14.926Z,19.55
2016-07-28T04:20:14.934Z,19.51
2016-07-28T04:21:14.923Z,19.59
2016-07-28T04:22:14.933Z,19.58
2016-07-28T04:23:14.929Z,19.55
2016-07-28T04:24:14.924Z,19.58
2016-07-28T04:25:14.929Z,19.63
2016-07-28T04:27:29.855Z,19.66
2016-07-28T04:28:14.976Z,19.73
2016-07-28T04:29:29.844Z,19.73
2016-07-28T04:30:14.924Z,19.8
2016-07-28T04:31:14.929Z,19.8
2016-07-28T04:32:14.926Z,19.78
2016-07-28T04:33:14.921Z,19.78
2016-07-28T04:34:14.921Z,19.88
2016-07-28T04:35:15.774Z,19.88
2016-07-28T04:36:16.429Z,19.96
2016-07-28T04:37:14.928Z,20.05
2016-07-28T04:38:29.840Z,20.06
2016-07-28T04:39:14.931Z,20.13
2016-07-28T04:40:14.923Z,20.13
2016-07-28T04:41:14.923Z,20.24
2016-07-28T04:42:14.923Z,20.29
2016-07-28T04:43:15.623Z,20.35
2016-07-28T04:44:14.922Z,20.38
2016-07-28T04:45:14.929Z,20.5
2016-07-28T04:46:14.929Z,20.58
2016-07-28T04:47:14.925Z,20.59
2016-07-28T04:48:14.928Z,20.69
2016-07-28T04:49:14.935Z,20.82
2016-07-28T04:50:14.927Z,20.89
2016-07-28T04:51:14.930Z,21.03
2016-07-28T04:52:14.928Z,21.1
2016-07-28T04:53:14.924Z,21.14
2016-07-28T04:54:14.924Z,21.14
2016-07-28T04:55:14.927Z,21.17
2016-07-28T04:56:14.930Z,21.35
2016-07-28T04:57:14.931Z,21.34
2016-07-28T04:58:14.940Z,21.47
2016-07-28T04:59:14.929Z,21.56
2016-07-28T05:00:14.936Z,21.69
2016-07-28T05:01:14.944Z,21.91
2016-07-28T05:02:14.938Z,22.02
2016-07-28T05:03:16.463Z,22.24
2016-07-28T05:04:15.457Z,22.43
2016-07-28T05:05:15.474Z,22.49
2016-07-28T05:06:16.090Z,22.61
2016-07-28T05:07:14.944Z,22.64
2016-07-28T05:08:14.952Z,22.73
2016-07-28T05:09:14.964Z,22.9
2016-07-28T05:10:14.955Z,22.9
2016-07-28T05:11:14.961Z,22.98
2016-07-28T05:12:16.482Z,23.05
2016-07-28T05:14:16.188Z,23.48
2016-07-28T05:15:15.345Z,23.68
2016-07-28T05:16:14.972Z,23.95
2016-07-28T05:17:14.980Z,24.08
2016-07-28T05:18:15.596Z,24.21
2016-07-28T05:19:14.987Z,24.34
2016-07-28T05:20:14.987Z,24.61
2016-07-28T05:21:14.997Z,24.81
2016-07-28T05:22:15.001Z,25.1
2016-07-28T05:23:15.007Z,25.3
2016-07-28T05:24:15.017Z,25.58
2016-07-28T05:25:15.017Z,25.82
2016-07-28T05:26:15.016Z,26.06
2016-07-28T05:27:15.025Z,26.23
2016-07-28T05:28:15.025Z,26.4
2016-07-28T05:29:15.036Z,26.7
2016-07-28T05:30:15.037Z,26.88
2016-07-28T05:31:15.054Z,27.06
2016-07-28T05:32:15.060Z,27.28
2016-07-28T05:33:15.057Z,27.5
2016-07-28T05:34:15.074Z,27.69
2016-07-28T05:35:15.079Z,27.87
2016-07-28T05:36:15.090Z,28.07
2016-07-28T05:37:15.096Z,28.36
2016-07-28T05:38:15.103Z,28.61
2016-07-28T05:39:15.108Z,28.85
2016-07-28T05:40:15.110Z,28.96
2016-07-28T05:41:15.128Z,29.16
2016-07-28T05:42:15.132Z,29.27
2016-07-28T05:43:15.136Z,29.58
2016-07-28T05:44:30.070Z,29.82
2016-07-28T05:45:15.715Z,29.98
2016-07-28T05:46:15.164Z,30.23
2016-07-28T05:47:15.179Z,30.24
2016-07-28T05:48:16.237Z,30.46
2016-07-28T05:49:15.197Z,30.51
2016-07-28T05:51:15.226Z,30.82
2016-07-28T05:52:15.224Z,30.97
2016-07-28T05:53:15.739Z,31.19
2016-07-28T05:55:30.574Z,31.8
2016-07-28T05:56:15.263Z,31.91
2016-07-28T05:57:15.828Z,32.13
2016-07-28T05:58:15.781Z,32.28
2016-07-28T05:59:16.093Z,32.52
2016-07-28T06:00:15.311Z,32.85
2016-07-28T06:01:15.313Z,32.94
2016-07-28T06:02:15.325Z,33.16
2016-07-28T06:03:15.335Z,33.31
2016-07-28T06:04:15.351Z,33.49
2016-07-28T06:05:15.356Z,33.54
2016-07-28T06:06:15.374Z,33.71
2016-07-28T06:07:15.392Z,33.79
2016-07-28T06:08:15.394Z,33.9
2016-07-28T06:09:15.405Z,34
2016-07-28T06:10:15.419Z,34.09
2016-07-28T06:11:15.435Z,34.19
2016-07-28T06:12:15.444Z,34.3
2016-07-28T06:13:15.465Z,34.31
2016-07-28T06:14:15.472Z,34.28
2016-07-28T06:15:15.488Z,34.27
2016-07-28T06:16:15.501Z,34.19
2016-07-28T06:17:15.501Z,34.19
2016-07-28T06:18:15.527Z,34.39
2016-07-28T06:19:15.527Z,34.42
2016-07-28T06:20:15.549Z,34.42
2016-07-28T06:21:16.413Z,34.46
2016-07-28T06:23:17.089Z,34.62
2016-07-28T06:24:16.595Z,34.75
2016-07-28T06:25:15.709Z,34.96
2016-07-28T06:26:15.816Z,35.15
2016-07-28T06:27:15.647Z,35.23
2016-07-28T06:28:15.659Z,35.4
2016-07-28T06:29:15.665Z,35.45
2016-07-28T06:30:17.203Z,35.66
2016-07-28T06:31:15.829Z,35.87
2016-07-28T06:32:15.930Z,35.97
2016-07-28T06:33:15.986Z,35.99
2016-07-28T06:34:15.737Z,36.05
2016-07-28T06:35:16.159Z,36.03
2016-07-28T06:36:16.303Z,36.08
2016-07-28T06:37:15.808Z,36.27
2016-07-28T06:38:15.799Z,36.39
2016-07-28T06:39:15.819Z,36.56
2016-07-28T06:40:15.826Z,36.65
2016-07-28T06:41:15.851Z,36.69
2016-07-28T06:42:15.862Z,36.85
2016-07-28T06:43:15.879Z,37.02
2016-07-28T06:44:15.890Z,37.17
2016-07-28T06:45:16.617Z,37.24
2016-07-28T06:46:15.927Z,37.27
2016-07-28T06:47:15.951Z,37.34
2016-07-28T06:48:15.956Z,37.28
2016-07-28T06:49:15.971Z,37.41
2016-07-28T06:50:15.998Z,37.4
2016-07-28T06:51:16.004Z,37.44
2016-07-28T06:52:16.023Z,37.51
2016-07-28T06:53:16.046Z,37.69
2016-07-28T06:54:16.062Z,37.81
2016-07-28T06:55:16.077Z,38.01
2016-07-28T06:56:16.100Z,38.15
2016-07-28T06:57:16.122Z,38.28
2016-07-28T06:58:16.130Z,38.38
2016-07-28T06:59:16.153Z,38.41
2016-07-28T07:00:16.169Z,38.38
2016-07-28T07:01:16.192Z,38.52
2016-07-28T07:02:18.202Z,38.63
2016-07-28T07:03:16.877Z,38.75
2016-07-28T07:04:17.097Z,38.76
2016-07-28T07:05:16.257Z,38.75
2016-07-28T07:06:16.275Z,38.72
2016-07-28T07:07:17.400Z,38.74
2016-07-28T07:08:16.319Z,38.81
2016-07-28T07:09:16.343Z,39.04
2016-07-28T07:10:16.350Z,39.18
2016-07-28T07:11:17.421Z,39.33
2016-07-28T07:12:16.891Z,39.32
2016-07-28T07:13:16.404Z,39.26
2016-07-28T07:14:16.431Z,39.28
2016-07-28T07:15:16.443Z,39.38
2016-07-28T07:16:16.467Z,39.26
2016-07-28T07:17:16.595Z,39.18
2016-07-28T07:18:16.501Z,39.17
2016-07-28T07:19:16.528Z,39.06
2016-07-28T07:20:16.539Z,38.86
2016-07-28T07:21:16.563Z,38.9
2016-07-28T07:22:16.589Z,38.96
2016-07-28T07:23:16.608Z,38.9
2016-07-28T07:24:16.619Z,38.9
2016-07-28T07:25:16.643Z,38.83
2016-07-28T07:26:16.660Z,38.76
2016-07-28T07:27:16.685Z,38.83
2016-07-28T07:28:16.701Z,38.87
2016-07-28T07:29:16.727Z,38.96
2016-07-28T07:30:16.733Z,39.17
2016-07-28T07:31:16.761Z,39.32
2016-07-28T07:32:16.772Z,39.57
2016-07-28T07:33:16.798Z,39.66
2016-07-28T07:34:16.822Z,39.97
2016-07-28T07:35:16.832Z,40.13
2016-07-28T07:36:16.853Z,40.22
2016-07-28T07:37:16.876Z,40.23
2016-07-28T07:38:16.890Z,40.16
2016-07-28T07:40:18.521Z,40.26
2016-07-28T07:41:17.028Z,40.19
2016-07-28T07:42:17.546Z,40.26
2016-07-28T07:43:17.576Z,40.16
2016-07-28T07:44:17.022Z,40.25
2016-07-28T07:45:17.033Z,40.29
2016-07-28T07:46:17.055Z,40.34
2016-07-28T07:47:17.074Z,40.42
2016-07-28T07:48:17.874Z,40.35
2016-07-28T07:49:20.700Z,40.16
2016-07-28T07:50:19.472Z,40.13
2016-07-28T07:51:17.163Z,39.89
2016-07-28T07:52:17.598Z,39.73
2016-07-28T07:53:17.201Z,39.52
2016-07-28T07:54:17.709Z,39.29
2016-07-28T07:55:17.925Z,39.1
2016-07-28T07:56:17.259Z,38.68
2016-07-28T07:57:17.270Z,38.38
2016-07-28T07:58:17.293Z,38.11
2016-07-28T07:59:17.307Z,37.85
2016-07-28T08:00:17.326Z,37.6
2016-07-28T08:01:17.338Z,37.51
2016-07-28T08:02:17.363Z,37.28
2016-07-28T08:03:17.388Z,36.93
2016-07-28T08:04:17.400Z,36.64
2016-07-28T08:05:17.413Z,36.29
2016-07-28T08:06:17.432Z,36.13
2016-07-28T08:07:17.445Z,36.03
2016-07-28T08:08:17.461Z,36.03
2016-07-28T08:09:17.469Z,36.17
2016-07-28T08:10:17.486Z,36.2
2016-07-28T08:11:17.502Z,36.12
2016-07-28T08:12:17.522Z,35.92
2016-07-28T08:13:17.538Z,35.77
2016-07-28T08:14:17.557Z,35.5
2016-07-28T08:15:17.562Z,35.25
2016-07-28T08:16:17.585Z,34.96
2016-07-28T08:17:17.592Z,34.64
2016-07-28T08:18:17.604Z,34.42
2016-07-28T08:19:17.619Z,34.39
2016-07-28T08:20:17.637Z,34.28
2016-07-28T08:21:33.419Z,34.19
2016-07-28T08:23:17.681Z,33.98
2016-07-28T08:24:17.734Z,33.73
2016-07-28T08:25:17.858Z,33.49
2016-07-28T08:26:17.717Z,33.29
2016-07-28T08:27:17.728Z,33.19
2016-07-28T08:28:17.745Z,33.04
2016-07-28T08:29:17.755Z,32.87
2016-07-28T08:31:18.582Z,32.75
2016-07-28T08:32:17.794Z,32.72
2016-07-28T08:33:18.497Z,32.66
2016-07-28T08:34:18.517Z,32.52
2016-07-28T08:35:17.829Z,32.43
2016-07-28T08:36:17.994Z,32.33
2016-07-28T08:37:17.853Z,32.19
2016-07-28T08:38:17.876Z,31.96
2016-07-28T08:39:17.878Z,31.88
2016-07-28T08:40:17.881Z,31.81
2016-07-28T08:41:17.892Z,31.73
2016-07-28T08:42:17.903Z,31.88
2016-07-28T08:44:17.935Z,32.14
2016-07-28T08:45:17.936Z,32.25
2016-07-28T08:46:17.954Z,32.33
2016-07-28T08:47:17.959Z,32.52
2016-07-28T08:48:17.978Z,32.6
2016-07-28T08:49:17.984Z,32.62
2016-07-28T08:50:17.995Z,32.74
2016-07-28T08:51:18.019Z,32.87
2016-07-28T08:52:18.028Z,32.82
2016-07-28T08:53:18.038Z,32.78
2016-07-28T08:54:18.048Z,32.66
2016-07-28T08:55:18.069Z,32.6
2016-07-28T08:56:18.069Z,32.48
2016-07-28T08:57:18.096Z,32.3
2016-07-28T08:59:20.659Z,31.75
2016-07-28T09:00:18.651Z,31.66
2016-07-28T09:01:19.656Z,31.51
2016-07-28T09:02:19.278Z,31.41
2016-07-28T09:03:18.154Z,31.41
2016-07-28T09:04:18.665Z,31.38
2016-07-28T09:05:18.178Z,31.28
2016-07-28T09:06:18.195Z,31.17
2016-07-28T09:08:20.154Z,31.16
2016-07-28T09:09:18.599Z,31.12
2016-07-28T09:10:20.051Z,31.12
2016-07-28T09:11:18.249Z,30.99
2016-07-28T09:12:18.270Z,30.67
2016-07-28T09:14:18.274Z,30.53
2016-07-28T09:15:18.283Z,30.35
2016-07-28T09:16:18.297Z,30.39
2016-07-28T09:17:18.314Z,30.49
2016-07-28T09:18:18.319Z,30.49
2016-07-28T09:19:18.325Z,30.53
2016-07-28T09:20:18.334Z,30.64
2016-07-28T09:21:18.346Z,30.58
2016-07-28T09:22:18.363Z,30.57
2016-07-28T09:23:19.066Z,30.39
2016-07-28T09:24:18.376Z,30.32
2016-07-28T09:25:18.380Z,30.1
2016-07-28T09:26:18.399Z,30.04
2016-07-28T09:27:18.405Z,29.95
2016-07-28T09:28:18.409Z,29.82
2016-07-28T09:29:18.421Z,29.82
2016-07-28T09:30:18.448Z,29.74
2016-07-28T09:31:18.435Z,29.71
2016-07-28T09:32:18.446Z,29.73
2016-07-28T09:33:18.460Z,29.79
2016-07-28T09:34:18.465Z,29.68
2016-07-28T09:35:18.483Z,29.74
2016-07-28T09:36:18.485Z,29.73
2016-07-28T09:37:18.490Z,29.68
2016-07-28T09:38:18.510Z,29.73
2016-07-28T09:39:18.859Z,29.7
2016-07-28T09:41:19.937Z,29.73
2016-07-28T09:42:18.739Z,29.74
2016-07-28T09:44:18.557Z,29.71
2016-07-28T09:45:18.712Z,29.73
2016-07-28T09:46:18.575Z,29.83
2016-07-28T09:47:18.578Z,29.94
2016-07-28T09:48:34.307Z,29.94
2016-07-28T09:49:19.101Z,30
2016-07-28T09:52:18.619Z,30
2016-07-28T09:53:18.731Z,30.05
2016-07-28T09:54:18.657Z,29.95
2016-07-28T09:55:18.655Z,29.9
2016-07-28T09:56:18.666Z,29.79
2016-07-28T09:57:18.665Z,29.83
2016-07-28T09:58:18.670Z,29.82
2016-07-28T09:59:18.689Z,30
2016-07-28T10:00:18.694Z,30
2016-07-28T10:01:18.694Z,29.95
2016-07-28T10:02:18.713Z,30.07
2016-07-28T10:03:18.710Z,30.11
2016-07-28T10:04:18.726Z,30.13
2016-07-28T10:05:18.740Z,30.15
2016-07-28T10:06:18.750Z,30.22
2016-07-28T10:07:18.754Z,30.11
2016-07-28T10:08:18.765Z,30.19
2016-07-28T10:09:18.774Z,30.15
2016-07-28T10:10:18.777Z,30.23
2016-07-28T10:11:18.788Z,30.34
2016-07-28T10:12:19.493Z,30.46
2016-07-28T10:13:18.809Z,30.54
2016-07-28T10:14:18.814Z,30.65
2016-07-28T10:15:18.829Z,30.67
2016-07-28T10:17:18.894Z,30.75
2016-07-28T10:18:19.139Z,30.8
2016-07-28T10:19:19.820Z,30.83
2016-07-28T10:20:18.864Z,30.94
2016-07-28T10:21:18.879Z,30.99
2016-07-28T10:22:18.886Z,30.98
2016-07-28T10:23:19.179Z,30.99
2016-07-28T10:24:18.968Z,31.1
2016-07-28T10:26:21.680Z,31.01
2016-07-28T10:27:18.934Z,30.98
2016-07-28T10:28:19.926Z,30.92
2016-07-28T10:29:18.947Z,30.75
2016-07-28T10:30:18.951Z,30.58
2016-07-28T10:31:18.968Z,30.51
2016-07-28T10:34:18.992Z,30.24
2016-07-28T10:35:19.005Z,30.02
2016-07-28T10:36:19.011Z,29.94
2016-07-28T10:37:19.027Z,29.78
2016-07-28T10:38:19.034Z,29.61
2016-07-28T10:39:19.034Z,29.42
2016-07-28T10:40:19.038Z,29.26
2016-07-28T10:41:19.052Z,29.16
2016-07-28T10:42:19.061Z,29.15
2016-07-28T10:43:19.072Z,28.95
2016-07-28T10:44:19.073Z,28.85
2016-07-28T10:45:19.084Z,28.83
2016-07-28T10:46:19.090Z,28.68
2016-07-28T10:47:19.095Z,28.59
2016-07-28T10:48:19.113Z,28.52
2016-07-28T10:49:19.113Z,28.43
2016-07-28T10:50:19.120Z,28.41
2016-07-28T10:51:19.231Z,28.39
2016-07-28T10:52:19.132Z,28.18
2016-07-28T10:53:19.144Z,28.3
2016-07-28T10:54:19.153Z,28.24
2016-07-28T10:55:19.152Z,28.21
2016-07-28T10:56:19.169Z,28.21
2016-07-28T10:57:34.887Z,28.21
2016-07-28T10:58:19.687Z,28.21
2016-07-28T10:59:19.188Z,28.31
2016-07-28T11:00:19.186Z,28.39
2016-07-28T11:01:19.200Z,28.4
2016-07-28T11:02:19.219Z,28.49
2016-07-28T11:03:19.218Z,28.49
2016-07-28T11:04:19.229Z,28.62
2016-07-28T11:05:19.226Z,28.7
2016-07-28T11:07:34.161Z,28.86
2016-07-28T11:08:19.251Z,28.86
2016-07-28T11:09:19.508Z,28.77
2016-07-28T11:10:19.515Z,28.77
2016-07-28T11:11:19.266Z,28.92
2016-07-28T11:12:19.282Z,28.85
2016-07-28T11:13:19.290Z,28.8
2016-07-28T11:14:19.395Z,28.67
2016-07-28T11:15:19.298Z,28.55
2016-07-28T11:16:19.310Z,28.41
2016-07-28T11:17:19.311Z,28.37
2016-07-28T11:18:19.319Z,28.31
2016-07-28T11:19:19.320Z,28.24
2016-07-28T11:20:19.331Z,28.27
2016-07-28T11:21:19.344Z,28.24
2016-07-28T11:22:19.354Z,28.12
2016-07-28T11:23:19.354Z,28.02
2016-07-28T11:24:19.365Z,27.99
2016-07-28T11:25:19.386Z,28
2016-07-28T11:26:19.377Z,27.93
2016-07-28T11:27:19.392Z,27.93
2016-07-28T11:28:20.088Z,27.97
2016-07-28T11:29:19.405Z,28.12
2016-07-28T11:30:19.427Z,28
2016-07-28T11:31:19.419Z,28.06
2016-07-28T11:32:19.421Z,28
2016-07-28T11:33:19.421Z,28
2016-07-28T11:35:20.267Z,28.12
2016-07-28T11:36:21.238Z,28.11
2016-07-28T11:37:20.477Z,28.25
2016-07-28T11:38:19.460Z,28.3
2016-07-28T11:39:19.462Z,28.39
2016-07-28T11:40:19.472Z,28.48
2016-07-28T11:41:19.715Z,28.48
2016-07-28T11:42:19.483Z,28.54
2016-07-28T11:45:20.922Z,28.8
2016-07-28T11:46:20.610Z,28.88
2016-07-28T11:47:19.523Z,28.86
2016-07-28T11:48:20.174Z,28.95
2016-07-28T11:49:20.008Z,29.15
2016-07-28T11:50:19.544Z,29.23
2016-07-28T11:51:19.612Z,29.58
2016-07-28T11:52:19.559Z,29.73
2016-07-28T11:53:19.564Z,29.85
2016-07-28T11:54:19.592Z,30.04
2016-07-28T11:55:19.582Z,30.13
2016-07-28T11:56:19.586Z,30.24
2016-07-28T11:57:19.600Z,30.34
2016-07-28T11:58:19.608Z,30.46
2016-07-28T11:59:19.608Z,30.53
2016-07-28T12:00:19.624Z,30.47
2016-07-28T12:01:19.633Z,30.53
2016-07-28T12:02:19.643Z,30.65
2016-07-28T12:03:19.641Z,30.6
2016-07-28T12:04:19.659Z,30.67
2016-07-28T12:05:19.661Z,30.62
2016-07-28T12:06:19.670Z,30.75
2016-07-28T12:07:19.681Z,30.77
2016-07-28T12:08:19.693Z,30.84
2016-07-28T12:09:19.689Z,30.91
2016-07-28T12:10:20.402Z,30.95
2016-07-28T12:11:19.715Z,31.01
2016-07-28T12:12:19.724Z,31.07
2016-07-28T12:13:20.433Z,31.12
2016-07-28T12:14:19.736Z,31.16
2016-07-28T12:15:20.953Z,31.2
2016-07-28T12:16:20.657Z,31.23
2016-07-28T12:17:34.883Z,31.34
2016-07-28T12:18:19.882Z,31.32
2016-07-28T12:19:19.788Z,31.36
2016-07-28T12:20:19.894Z,31.43
2016-07-28T12:21:19.806Z,31.53
2016-07-28T12:22:19.810Z,31.5
2016-07-28T12:23:19.832Z,31.5
2016-07-28T12:25:20.146Z,31.48
2016-07-28T12:28:20.219Z,31.62
2016-07-28T12:29:19.874Z,31.53
2016-07-28T12:30:19.878Z,31.58
2016-07-28T12:31:19.896Z,31.58
2016-07-28T12:32:19.894Z,31.7
2016-07-28T12:33:19.927Z,31.58
2016-07-28T12:34:19.921Z,31.51
2016-07-28T12:36:19.945Z,31.66
2016-07-28T12:37:19.946Z,31.68
2016-07-28T12:38:19.955Z,31.72
2016-07-28T12:39:19.970Z,31.85
2016-07-28T12:40:19.977Z,31.84
2016-07-28T12:41:19.977Z,31.72
2016-07-28T12:42:19.997Z,31.69
2016-07-28T12:43:20.003Z,31.7
2016-07-28T12:44:20.019Z,31.54
2016-07-28T12:45:20.026Z,31.41
2016-07-28T12:46:20.026Z,31.38
2016-07-28T12:47:20.044Z,31.35
2016-07-28T12:48:20.050Z,31.36
2016-07-28T12:49:20.061Z,31.51
2016-07-28T12:50:20.067Z,31.56
2016-07-28T12:51:20.189Z,31.5
2016-07-28T12:52:21.604Z,31.65
2016-07-28T12:53:20.193Z,31.51
2016-07-28T12:54:20.408Z,31.53
2016-07-28T12:55:20.624Z,31.5
2016-07-28T12:56:20.404Z,31.39
2016-07-28T12:57:20.134Z,31.39
2016-07-28T12:58:20.137Z,31.38
2016-07-28T12:59:20.154Z,31.25
2016-07-28T13:00:20.161Z,31.26
2016-07-28T13:02:21.178Z,31.2
2016-07-28T13:03:20.182Z,31.13
2016-07-28T13:04:20.675Z,31.17
2016-07-28T13:05:20.811Z,31.02
2016-07-28T13:06:20.216Z,30.99
2016-07-28T13:07:20.325Z,30.99
2016-07-28T13:08:20.246Z,31.1
2016-07-28T13:09:20.233Z,31.02
2016-07-28T13:10:20.246Z,31.06
2016-07-28T13:11:20.250Z,31.02
2016-07-28T13:12:20.271Z,30.99
2016-07-28T13:13:20.280Z,31.04
2016-07-28T13:14:20.280Z,31.07
2016-07-28T13:15:20.288Z,31.17
2016-07-28T13:16:20.304Z,31.16
2016-07-28T13:17:20.312Z,31.19
2016-07-28T13:18:20.319Z,31.23
2016-07-28T13:19:20.319Z,31.2
2016-07-28T13:20:20.339Z,31.17
2016-07-28T13:21:20.349Z,31.1
2016-07-28T13:22:20.359Z,31.02
2016-07-28T13:23:20.366Z,31.04
2016-07-28T13:24:20.370Z,31.1
2016-07-28T13:25:20.383Z,31.16
2016-07-28T13:26:20.387Z,31.2
2016-07-28T13:27:20.402Z,31.28
2016-07-28T13:28:20.406Z,31.35
2016-07-28T13:30:20.422Z,31.35
2016-07-28T13:31:20.432Z,31.34
2016-07-28T13:32:20.442Z,31.32
2016-07-28T13:33:20.447Z,31.29
2016-07-28T13:34:20.704Z,31.29
2016-07-28T13:35:21.469Z,31.31
2016-07-28T13:36:35.898Z,31.31
2016-07-28T13:37:20.735Z,31.32
2016-07-28T13:38:20.488Z,31.28
2016-07-28T13:39:20.510Z,31.35